WetterOnline ( http://www.wetteronline.de )

Wetter aktuell Freising

Aktuelles Wetter: Weihenstephan-Dürnast (478m)

6-stündlich | Neueste Meldungen
Ortszeit Temperatur Wetter
Di, 19.02. 19:00 8.9° C bedeckt
Di, 19.02. 13:00 9.5° C bewölkt
Di, 19.02. 7:00 0.4° C wolkig
Di, 19.02. 1:00 -1.6° C wolkenlos
Mo, 18.02. 19:00 3.7° C wolkenlos
Mo, 18.02. 13:00 9.5° C wolkenlos
Mo, 18.02. 7:00 -4.0° C wolkenlos
Mo, 18.02. 1:00 -2.0° C leicht bewölkt
Ortszeit Temperatur Wetter
Di, 19.02. 21:00 7.2° C bedeckt
Di, 19.02. 20:50 7.2° C bedeckt
Di, 19.02. 20:40 7.2° C bedeckt
Di, 19.02. 20:30 7.4° C bedeckt
Di, 19.02. 20:20 7.4° C bedeckt
Di, 19.02. 20:10 7.4° C bedeckt
Di, 19.02. 20:00 7.9° C bedeckt
Di, 19.02. 19:30 8.2° C bedeckt
Di, 19.02. 19:00 8.9° C bedeckt
Di, 19.02. 18:30 8.3° C bedeckt
Di, 19.02. 18:00 7.7° C bedeckt
Ortszeit Relative Feuchte Sichtweite
Di, 19.02. 19:00 67% 24 km
Di, 19.02. 13:00 60% 23 km
Di, 19.02. 7:00 83% 14 km
Di, 19.02. 1:00 94% 10 km
Mo, 18.02. 19:00 73% 40 km
Mo, 18.02. 13:00 41% 30 km
Mo, 18.02. 7:00 96% 21 km
Mo, 18.02. 1:00 94% 7 km
Ortszeit Relative Feuchte Sichtweite
Di, 19.02. 21:00 75% 16 km
Di, 19.02. 20:50 75% -
Di, 19.02. 20:40 75% -
Di, 19.02. 20:30 73% 18 km
Di, 19.02. 20:20 73% -
Di, 19.02. 20:10 73% -
Di, 19.02. 20:00 71% 21 km
Di, 19.02. 19:30 70% 21 km
Di, 19.02. 19:00 67% 24 km
Di, 19.02. 18:30 71% 30 km
Di, 19.02. 18:00 75% 28 km
Ortszeit Niederschlagsmenge Niederschlagsart
Di, 19.02. 19:00 0.0 l/m2 in 12 Std. -
Di, 19.02. 13:00 0.0 l/m2 in 6 Std. -
Di, 19.02. 7:00 0.0 l/m2 in 12 Std. -
Di, 19.02. 1:00 0.0 l/m2 in 6 Std. -
Mo, 18.02. 19:00 0.0 l/m2 in 12 Std. -
Mo, 18.02. 13:00 0.0 l/m2 in 6 Std. -
Mo, 18.02. 7:00 0.0 l/m2 in 12 Std. -
Mo, 18.02. 1:00 0.0 l/m2 in 6 Std. -
Ortszeit Niederschlagsmenge Niederschlagsart
Di, 19.02. 21:00 0.0 l/m2 in 1 Std. -
Di, 19.02. 20:50 keine Meldung -
Di, 19.02. 20:40 keine Meldung -
Di, 19.02. 20:30 0.0 l/m2 in 1 Std. -
Di, 19.02. 20:20 keine Meldung -
Di, 19.02. 20:10 keine Meldung -
Di, 19.02. 20:00 0.0 l/m2 in 1 Std. -
Di, 19.02. 19:30 0.0 l/m2 in 1 Std. -
Di, 19.02. 19:00 0.0 l/m2 in 1 Std. -
Di, 19.02. 18:30 0.0 l/m2 in 1 Std. -
Di, 19.02. 18:00 0.0 l/m2 in 1 Std. -
Ortszeit Stärke Spitze Richtung
km/h Bft. km/h Grad Sektor
Di, 19.02. 19:00 9 2 33 300° NW
Di, 19.02. 13:00 19 3 31 260° W
Di, 19.02. 7:00 4 1 11 230° SW
Di, 19.02. 1:00 4 1 4 280° W
Mo, 18.02. 19:00 4 1 14 290° W
Mo, 18.02. 13:00 7 2 11 140° SO
Mo, 18.02. 7:00 0 0 4 - -
Mo, 18.02. 1:00 0 0 4 - -
Ortszeit Stärke Spitze Richtung
km/h Bft. km/h Grad Sektor
Di, 19.02. 21:00 11 2 22 300° NW
Di, 19.02. 20:50 11 2 - 300° NW
Di, 19.02. 20:40 13 3 - 310° NW
Di, 19.02. 20:30 11 2 18 310° NW
Di, 19.02. 20:20 11 2 - 310° NW
Di, 19.02. 20:10 9 2 - 300° NW
Di, 19.02. 20:00 11 2 18 300° NW
Di, 19.02. 19:30 11 2 18 310° NW
Di, 19.02. 19:00 9 2 15 300° NW
Di, 19.02. 18:30 7 2 11 260° W
Di, 19.02. 18:00 7 2 14 250° W
Ortszeit Untergrenze Bedeckung Gattung
total tief tief mittel hoch
Di, 19.02. 19:00 1320 m 8/8 8/8 - - -
Di, 19.02. 13:00 1800 m 7/8 6/8 - - -
Di, 19.02. 7:00 10500 m 8/8 0/8 - - -
Di, 19.02. 1:00 - 0/8 0/8 - - -
Mo, 18.02. 19:00 - 0/8 0/8 - - -
Mo, 18.02. 13:00 - 0/8 0/8 - - -
Mo, 18.02. 7:00 - 0/8 0/8 - - -
Mo, 18.02. 1:00 10500 m 3/8 0/8 - - -
Ortszeit Bedeckungsgrad in Achtel und Wolkenuntergrenze
Di, 19.02. 21:00 7(1170m) 7(1500m) 8(2700m)
Di, 19.02. 20:50 7(1170m) 7(1500m) 8(2700m)
Di, 19.02. 20:40 5(1170m) 7(1500m) 8(2700m)
Di, 19.02. 20:30 4(1500m) 8(2700m) 8(2700m)
Di, 19.02. 20:20 4(1500m) 8(2700m)
Di, 19.02. 20:10 1(1500m) 8(2700m)
Di, 19.02. 20:00 3(1800m) 8(2700m)
Di, 19.02. 19:30 5(1800m) 8(2700m)
Di, 19.02. 19:00 3(1320m) 7(2100m) 8(2700m)
Di, 19.02. 18:30 3(1290m) 8(2100m) 8(2700m)
Di, 19.02. 18:00 2(1500m) 8(2100m) 8(2700m)
Ortszeit Luftdruck NN (hPa) Tendenz (hPa in 3 Std.)
Di, 19.02. 19:00 1021 + 0,7
Di, 19.02. 13:00 1021 - 0,3
Di, 19.02. 7:00 1023 + 0,9
Di, 19.02. 1:00 1022 + 0,2
Mo, 18.02. 19:00 1021 - 0,4
Mo, 18.02. 13:00 1022 - 1,4
Mo, 18.02. 7:00 1026 - 0,4
Mo, 18.02. 1:00 1027 - 0,3
Ortszeit Luftdruck NN (hPa) Tendenz (hPa in 3 Std.)
Di, 19.02. 21:00 1023 + 1,7
Di, 19.02. 20:50 1023 keine Meldung
Di, 19.02. 20:40 1022 keine Meldung
Di, 19.02. 20:30 1022 + 1,4
Di, 19.02. 20:20 1022 keine Meldung
Di, 19.02. 20:10 1022 keine Meldung
Di, 19.02. 20:00 1022 + 1,2
Di, 19.02. 19:30 1022 + 1,0
Di, 19.02. 19:00 1021 + 0,7
Di, 19.02. 18:30 1021 + 0,3
Di, 19.02. 18:00 1021 - 0,1
Ortszeit Schneehöhe (cm)
Di, 19.02. 19:00 0
Di, 19.02. 13:00 0
Di, 19.02. 7:00 0
Di, 19.02. 1:00 0
Mo, 18.02. 19:00 -
Mo, 18.02. 13:00 -
Mo, 18.02. 7:00 1
Mo, 18.02. 1:00 1
Ortszeit Schneehöhe (cm)
Di, 19.02. 21:00 0
Di, 19.02. 20:50 0
Di, 19.02. 20:40 0
Di, 19.02. 20:30 0
Di, 19.02. 20:20 0
Di, 19.02. 20:10 0
Di, 19.02. 20:00 0
Di, 19.02. 19:30 0
Di, 19.02. 19:00 0
Di, 19.02. 18:30 0
Di, 19.02. 18:00 0
Link zu dieser Seite / Seite empfehlen

Das Wetter in ...